LHPP/PEV METAR and TAF weather

Enter ICAO airport designator
Station Type Date Time Source
LHPP METAR 2019/07/20 04:45 UTC NOAA

LHPP 200445Z 12001KT CAVOK 19/16 Q1018


Station Type Date Time Source
LHPP Decoded METAR 2019/07/20 04:45 UTC NOAA

Pecs / Pogany, Hungary (LHPP) 46-06N 018-14E 203M
Jul 20, 2019 - 12:45 AM EDT / 2019.07.20 0445 UTC
Wind: from the ESE (120 degrees) at 1 MPH (1 KT):0
Visibility: greater than 7 mile(s):0
Temperature: 66 F (19 C)
Dew Point: 60 F (16 C)
Relative Humidity: 82%
Pressure (altimeter): 30.06 in. Hg (1018 hPa)
ob: LHPP 200445Z 12001KT CAVOK 19/16 Q1018
cycle: 5

Station Type Date Time Source
LHPP TAF 2017/08/21 15:50 UTC NOAA

TAF LHPP 211700Z 2115/2214 CNL

Example: see airport list